sensor_id;sensor_type;location;lat;lon;timestamp;P1;durP1;ratioP1;P2;durP2;ratioP2
72645;SDS011;60687;53.876;10.674;2023-03-23T00:08:59;8.10;;;2.90;;
72645;SDS011;60687;53.876;10.674;2023-03-23T00:19:04;8.53;;;3.47;;
72645;SDS011;60687;53.876;10.674;2023-03-23T00:29:12;9.38;;;3.78;;
72645;SDS011;60687;53.876;10.674;2023-03-23T00:39:19;9.25;;;3.65;;
72645;SDS011;60687;53.876;10.674;2023-03-23T00:49:28;9.03;;;3.70;;
72645;SDS011;60687;53.876;10.674;2023-03-23T00:59:35;7.80;;;3.33;;
72645;SDS011;60687;53.876;10.674;2023-03-23T01:09:38;8.68;;;3.72;;
72645;SDS011;60687;53.876;10.674;2023-03-23T01:19:46;9.13;;;4.20;;
72645;SDS011;60687;53.876;10.674;2023-03-23T01:29:52;9.37;;;4.07;;
72645;SDS011;60687;53.876;10.674;2023-03-23T01:39:55;9.75;;;4.35;;
72645;SDS011;60687;53.876;10.674;2023-03-23T01:50:00;10.20;;;4.80;;
72645;SDS011;60687;53.876;10.674;2023-03-23T02:00:04;9.57;;;4.33;;
72645;SDS011;60687;53.876;10.674;2023-03-23T02:10:16;12.65;;;4.82;;
72645;SDS011;60687;53.876;10.674;2023-03-23T02:20:23;11.43;;;4.60;;
72645;SDS011;60687;53.876;10.674;2023-03-23T02:30:48;9.93;;;4.50;;
72645;SDS011;60687;53.876;10.674;2023-03-23T02:41:30;11.13;;;4.67;;
72645;SDS011;60687;53.876;10.674;2023-03-23T02:51:34;10.73;;;5.07;;
72645;SDS011;60687;53.876;10.674;2023-03-23T03:01:47;10.37;;;4.73;;
72645;SDS011;60687;53.876;10.674;2023-03-23T03:12:06;10.57;;;4.83;;
72645;SDS011;60687;53.876;10.674;2023-03-23T03:22:15;9.52;;;4.40;;
72645;SDS011;60687;53.876;10.674;2023-03-23T03:32:21;10.63;;;4.67;;
72645;SDS011;60687;53.876;10.674;2023-03-23T03:42:28;9.90;;;4.47;;
72645;SDS011;60687;53.876;10.674;2023-03-23T03:52:31;8.98;;;4.65;;
72645;SDS011;60687;53.876;10.674;2023-03-23T04:02:36;9.43;;;4.63;;
72645;SDS011;60687;53.876;10.674;2023-03-23T04:12:38;10.00;;;4.50;;
72645;SDS011;60687;53.876;10.674;2023-03-23T04:23:01;8.33;;;4.43;;
72645;SDS011;60687;53.876;10.674;2023-03-23T04:33:07;9.60;;;4.80;;
72645;SDS011;60687;53.876;10.674;2023-03-23T04:43:17;9.80;;;5.03;;
72645;SDS011;60687;53.876;10.674;2023-03-23T04:53:29;10.93;;;5.07;;
72645;SDS011;60687;53.876;10.674;2023-03-23T05:03:35;11.48;;;5.15;;
72645;SDS011;60687;53.876;10.674;2023-03-23T05:13:38;11.27;;;5.00;;
72645;SDS011;60687;53.876;10.674;2023-03-23T05:23:47;11.03;;;5.80;;
72645;SDS011;60687;53.876;10.674;2023-03-23T05:33:57;10.85;;;5.88;;
72645;SDS011;60687;53.876;10.674;2023-03-23T05:44:06;10.10;;;5.43;;
72645;SDS011;60687;53.876;10.674;2023-03-23T05:54:28;10.50;;;5.40;;
72645;SDS011;60687;53.876;10.674;2023-03-23T06:04:32;10.37;;;5.70;;
72645;SDS011;60687;53.876;10.674;2023-03-23T06:14:58;12.93;;;6.93;;
72645;SDS011;60687;53.876;10.674;2023-03-23T06:25:24;11.97;;;6.20;;
72645;SDS011;60687;53.876;10.674;2023-03-23T06:35:28;10.97;;;5.37;;
72645;SDS011;60687;53.876;10.674;2023-03-23T06:45:58;11.00;;;6.25;;
72645;SDS011;60687;53.876;10.674;2023-03-23T06:56:16;10.93;;;5.33;;
72645;SDS011;60687;53.876;10.674;2023-03-23T07:06:33;11.23;;;5.40;;
72645;SDS011;60687;53.876;10.674;2023-03-23T07:16:41;10.25;;;5.00;;
72645;SDS011;60687;53.876;10.674;2023-03-23T07:26:45;9.15;;;4.45;;
72645;SDS011;60687;53.876;10.674;2023-03-23T07:36:48;8.10;;;3.20;;
72645;SDS011;60687;53.876;10.674;2023-03-23T07:47:03;8.93;;;3.37;;
72645;SDS011;60687;53.876;10.674;2023-03-23T07:57:07;7.57;;;3.60;;
72645;SDS011;60687;53.876;10.674;2023-03-23T08:07:17;8.37;;;3.30;;
72645;SDS011;60687;53.876;10.674;2023-03-23T08:17:26;7.83;;;3.07;;
72645;SDS011;60687;53.876;10.674;2023-03-23T08:27:49;8.23;;;3.30;;
72645;SDS011;60687;53.876;10.674;2023-03-23T08:38:05;7.20;;;2.70;;
72645;SDS011;60687;53.876;10.674;2023-03-23T08:48:38;8.77;;;2.77;;
72645;SDS011;60687;53.876;10.674;2023-03-23T08:59:07;5.40;;;2.05;;
72645;SDS011;60687;53.876;10.674;2023-03-23T09:09:36;6.32;;;1.33;;
72645;SDS011;60687;53.876;10.674;2023-03-23T09:19:41;4.50;;;1.17;;
72645;SDS011;60687;53.876;10.674;2023-03-23T09:29:45;4.20;;;1.03;;
72645;SDS011;60687;53.876;10.674;2023-03-23T09:39:49;5.15;;;1.17;;
72645;SDS011;60687;53.876;10.674;2023-03-23T09:49:55;4.23;;;1.20;;
72645;SDS011;60687;53.876;10.674;2023-03-23T10:00:01;6.30;;;1.30;;
72645;SDS011;60687;53.876;10.674;2023-03-23T10:10:15;5.88;;;1.50;;
72645;SDS011;60687;53.876;10.674;2023-03-23T10:20:21;6.77;;;1.67;;
72645;SDS011;60687;53.876;10.674;2023-03-23T10:30:35;9.83;;;2.03;;
72645;SDS011;60687;53.876;10.674;2023-03-23T10:40:43;8.00;;;1.98;;
72645;SDS011;60687;53.876;10.674;2023-03-23T10:50:52;7.85;;;1.83;;
72645;SDS011;60687;53.876;10.674;2023-03-23T11:00:57;6.60;;;1.70;;
72645;SDS011;60687;53.876;10.674;2023-03-23T11:11:11;6.43;;;1.80;;
72645;SDS011;60687;53.876;10.674;2023-03-23T11:21:19;8.65;;;1.63;;
72645;SDS011;60687;53.876;10.674;2023-03-23T11:31:27;9.13;;;1.90;;
72645;SDS011;60687;53.876;10.674;2023-03-23T11:41:37;8.00;;;2.20;;
72645;SDS011;60687;53.876;10.674;2023-03-23T11:51:45;10.02;;;1.60;;
72645;SDS011;60687;53.876;10.674;2023-03-23T12:01:53;7.50;;;1.57;;
72645;SDS011;60687;53.876;10.674;2023-03-23T12:12:07;12.30;;;1.90;;
72645;SDS011;60687;53.876;10.674;2023-03-23T12:22:28;10.73;;;1.92;;
72645;SDS011;60687;53.876;10.674;2023-03-23T12:32:45;9.70;;;1.80;;
72645;SDS011;60687;53.876;10.674;2023-03-23T12:42:55;9.20;;;1.60;;
72645;SDS011;60687;53.876;10.674;2023-03-23T12:53:05;10.57;;;1.70;;
72645;SDS011;60687;53.876;10.674;2023-03-23T13:03:14;10.77;;;1.58;;
72645;SDS011;60687;53.876;10.674;2023-03-23T13:13:39;10.03;;;1.90;;
72645;SDS011;60687;53.876;10.674;2023-03-23T13:23:47;9.83;;;1.90;;
72645;SDS011;60687;53.876;10.674;2023-03-23T13:34:01;8.68;;;1.83;;
72645;SDS011;60687;53.876;10.674;2023-03-23T13:44:17;11.57;;;2.30;;
72645;SDS011;60687;53.876;10.674;2023-03-23T13:54:29;9.03;;;2.43;;
72645;SDS011;60687;53.876;10.674;2023-03-23T14:04:38;11.13;;;2.85;;
72645;SDS011;60687;53.876;10.674;2023-03-23T14:14:43;9.18;;;2.33;;
72645;SDS011;60687;53.876;10.674;2023-03-23T14:24:51;9.43;;;2.33;;
72645;SDS011;60687;53.876;10.674;2023-03-23T14:35:05;8.00;;;1.90;;
72645;SDS011;60687;53.876;10.674;2023-03-23T14:45:14;6.65;;;1.60;;
72645;SDS011;60687;53.876;10.674;2023-03-23T14:55:23;5.13;;;1.20;;
72645;SDS011;60687;53.876;10.674;2023-03-23T15:05:33;5.77;;;1.20;;
72645;SDS011;60687;53.876;10.674;2023-03-23T15:15:44;3.97;;;1.08;;
72645;SDS011;60687;53.876;10.674;2023-03-23T15:25:47;4.13;;;0.97;;
72645;SDS011;60687;53.876;10.674;2023-03-23T15:35:55;4.53;;;1.27;;
72645;SDS011;60687;53.876;10.674;2023-03-23T15:46:03;5.18;;;1.05;;
72645;SDS011;60687;53.876;10.674;2023-03-23T15:56:22;4.75;;;1.20;;
72645;SDS011;60687;53.876;10.674;2023-03-23T16:06:26;6.80;;;1.43;;
72645;SDS011;60687;53.876;10.674;2023-03-23T16:16:34;4.40;;;1.20;;
72645;SDS011;60687;53.876;10.674;2023-03-23T16:26:39;6.88;;;1.63;;
72645;SDS011;60687;53.876;10.674;2023-03-23T16:36:43;6.67;;;1.67;;
72645;SDS011;60687;53.876;10.674;2023-03-23T16:46:45;5.90;;;1.87;;
72645;SDS011;60687;53.876;10.674;2023-03-23T16:56:52;7.60;;;2.03;;
72645;SDS011;60687;53.876;10.674;2023-03-23T17:06:55;7.80;;;1.80;;
72645;SDS011;60687;53.876;10.674;2023-03-23T17:17:01;6.57;;;1.97;;
72645;SDS011;60687;53.876;10.674;2023-03-23T17:27:03;8.93;;;3.25;;
72645;SDS011;60687;53.876;10.674;2023-03-23T17:37:08;8.25;;;2.92;;
72645;SDS011;60687;53.876;10.674;2023-03-23T17:47:13;8.17;;;2.10;;
72645;SDS011;60687;53.876;10.674;2023-03-23T17:57:17;5.80;;;2.00;;
72645;SDS011;60687;53.876;10.674;2023-03-23T18:07:21;7.53;;;2.30;;
72645;SDS011;60687;53.876;10.674;2023-03-23T18:17:25;6.83;;;2.20;;
72645;SDS011;60687;53.876;10.674;2023-03-23T18:27:28;5.70;;;1.80;;
72645;SDS011;60687;53.876;10.674;2023-03-23T18:37:34;7.03;;;2.20;;
72645;SDS011;60687;53.876;10.674;2023-03-23T18:47:42;6.27;;;1.83;;
72645;SDS011;60687;53.876;10.674;2023-03-23T18:57:51;6.63;;;2.23;;
72645;SDS011;60687;53.876;10.674;2023-03-23T19:07:59;7.28;;;2.05;;
72645;SDS011;60687;53.876;10.674;2023-03-23T19:18:04;7.53;;;2.30;;
72645;SDS011;60687;53.876;10.674;2023-03-23T19:28:10;8.27;;;2.10;;
72645;SDS011;60687;53.876;10.674;2023-03-23T19:38:14;6.83;;;2.00;;
72645;SDS011;60687;53.876;10.674;2023-03-23T19:48:17;7.43;;;2.03;;
72645;SDS011;60687;53.876;10.674;2023-03-23T19:58:23;6.47;;;1.80;;
72645;SDS011;60687;53.876;10.674;2023-03-23T20:08:26;5.90;;;1.87;;
72645;SDS011;60687;53.876;10.674;2023-03-23T20:18:30;6.72;;;1.75;;
72645;SDS011;60687;53.876;10.674;2023-03-23T20:28:42;6.30;;;2.20;;
72645;SDS011;60687;53.876;10.674;2023-03-23T20:38:51;6.97;;;2.40;;
72645;SDS011;60687;53.876;10.674;2023-03-23T20:48:54;6.63;;;2.25;;
72645;SDS011;60687;53.876;10.674;2023-03-23T20:58:59;7.67;;;2.40;;
72645;SDS011;60687;53.876;10.674;2023-03-23T21:09:08;8.07;;;3.03;;
72645;SDS011;60687;53.876;10.674;2023-03-23T21:19:16;7.32;;;2.70;;
72645;SDS011;60687;53.876;10.674;2023-03-23T21:29:20;8.50;;;3.17;;
72645;SDS011;60687;53.876;10.674;2023-03-23T21:39:28;8.10;;;3.20;;
72645;SDS011;60687;53.876;10.674;2023-03-23T21:49:31;9.10;;;3.60;;
72645;SDS011;60687;53.876;10.674;2023-03-23T21:59:42;8.23;;;3.50;;
72645;SDS011;60687;53.876;10.674;2023-03-23T22:09:45;8.67;;;4.13;;
72645;SDS011;60687;53.876;10.674;2023-03-23T22:19:52;8.33;;;3.90;;
72645;SDS011;60687;53.876;10.674;2023-03-23T22:29:56;8.90;;;4.28;;
72645;SDS011;60687;53.876;10.674;2023-03-23T22:40:00;8.57;;;3.77;;
72645;SDS011;60687;53.876;10.674;2023-03-23T22:50:07;9.30;;;4.00;;
72645;SDS011;60687;53.876;10.674;2023-03-23T23:00:12;9.75;;;4.30;;
72645;SDS011;60687;53.876;10.674;2023-03-23T23:10:15;10.32;;;4.05;;
72645;SDS011;60687;53.876;10.674;2023-03-23T23:20:19;9.63;;;4.17;;
72645;SDS011;60687;53.876;10.674;2023-03-23T23:30:24;9.17;;;4.43;;
72645;SDS011;60687;53.876;10.674;2023-03-23T23:40:31;9.90;;;4.32;;
72645;SDS011;60687;53.876;10.674;2023-03-23T23:50:34;8.90;;;4.27;;
